Terminal Aerodrome Forecast
Issued by NWS

Home | Current Version | Previous Version | Text Only | Print | Product List | Glossary On
Versions: 1 2 3 4 5 6 7 8 9 10 11 12 13 14 15 16 17 18 19 20 21 22 23 24 25 26 27 28 29 30 31 32
000
FTUS45 KBOU 272327
TAFAPA
TAF
KAPA 272327Z 2800/2824 15007KT P6SM FEW140 SCT220
     FM280400 18010KT P6SM SCT120 BKN200
     FM281600 24008KT P6SM BKN120 BKN180
     FM282200 31008KT P6SM BKN120 BKN180=

USA.gov is the U.S. government's official web portal to all federal, state and local government web resources and services.